createdAt,value
2024-05-09T00:04:11.337Z,10.8
2024-05-09T00:09:11.255Z,10.8
2024-05-09T00:14:11.267Z,10.7
2024-05-09T00:19:11.470Z,10.7
2024-05-09T00:24:11.287Z,10.8
2024-05-09T00:29:11.332Z,10.8
2024-05-09T00:34:11.378Z,10.8
2024-05-09T00:39:11.295Z,10.8
2024-05-09T00:44:11.401Z,10.6
2024-05-09T00:49:11.365Z,10.5
2024-05-09T00:54:11.293Z,10.6
2024-05-09T00:59:11.384Z,10.5
2024-05-09T01:04:11.545Z,10.4
2024-05-09T01:09:11.481Z,10.3
2024-05-09T01:14:11.287Z,10.3
2024-05-09T01:19:11.410Z,10.1
2024-05-09T01:24:11.279Z,9.9
2024-05-09T01:29:11.358Z,9.8
2024-05-09T01:34:11.342Z,9.6
2024-05-09T01:39:11.339Z,9.5
2024-05-09T01:44:11.363Z,9.4
2024-05-09T01:49:11.361Z,9.3
2024-05-09T01:54:11.320Z,9.2
2024-05-09T01:59:11.444Z,9
2024-05-09T02:09:11.348Z,8.4
2024-05-09T02:19:11.538Z,8.6
2024-05-09T02:24:11.300Z,8.5
2024-05-09T02:29:11.484Z,8.5
2024-05-09T02:34:11.497Z,8.3
2024-05-09T02:39:11.392Z,8.3
2024-05-09T02:44:11.349Z,8
2024-05-09T02:49:11.582Z,7.9
2024-05-09T02:54:11.306Z,7.8
2024-05-09T02:59:11.358Z,7.8
2024-05-09T03:04:11.370Z,7.6
2024-05-09T03:09:11.314Z,7.6
2024-05-09T03:14:11.385Z,7.4
2024-05-09T03:19:11.362Z,7.3
2024-05-09T03:24:11.328Z,7.3
2024-05-09T03:29:11.348Z,7.2
2024-05-09T03:34:11.389Z,7.3
2024-05-09T03:39:11.322Z,7.1
2024-05-09T03:49:12.470Z,7.1
2024-05-09T03:54:12.317Z,6.9
2024-05-09T03:59:12.509Z,6.9
2024-05-09T04:04:12.442Z,6.9
2024-05-09T04:09:12.396Z,6.8
2024-05-09T04:14:12.503Z,6.9
2024-05-09T04:19:12.397Z,6.9
2024-05-09T04:24:12.395Z,6.9
2024-05-09T04:29:12.369Z,6.9
2024-05-09T04:34:12.501Z,7.1
2024-05-09T04:39:12.407Z,7.4
2024-05-09T04:44:12.366Z,7.6
2024-05-09T04:49:12.481Z,7.7
2024-05-09T04:54:21.841Z,7.8
2024-05-09T04:59:12.391Z,7.9
2024-05-09T05:04:12.468Z,7.9
2024-05-09T05:09:12.340Z,7.8
2024-05-09T05:14:12.478Z,8.1
2024-05-09T05:19:15.075Z,8.3
2024-05-09T05:24:12.383Z,8.3
2024-05-09T05:29:12.545Z,8.3
2024-05-09T05:34:12.382Z,8.5
2024-05-09T05:39:12.367Z,8.6
2024-05-09T05:44:12.396Z,8.8
2024-05-09T05:49:12.547Z,8.8
2024-05-09T05:54:12.368Z,8.7
2024-05-09T05:59:14.743Z,8.8
2024-05-09T06:04:12.404Z,8.9
2024-05-09T06:09:12.374Z,9.3
2024-05-09T06:14:12.413Z,9.4
2024-05-09T06:19:12.450Z,9.4
2024-05-09T06:24:12.386Z,9.8
2024-05-09T06:29:12.480Z,9.9
2024-05-09T06:34:12.567Z,10.3
2024-05-09T06:39:12.393Z,10.2
2024-05-09T06:44:12.437Z,10.6
2024-05-09T06:49:12.754Z,10.8
2024-05-09T06:54:12.419Z,11
2024-05-09T06:59:12.451Z,11.2
2024-05-09T07:04:12.587Z,11.2
2024-05-09T07:09:12.389Z,11.4
2024-05-09T07:14:12.404Z,11.7
2024-05-09T07:19:12.516Z,12.1
2024-05-09T07:24:12.419Z,12.3
2024-05-09T07:29:12.521Z,12.6
2024-05-09T07:34:12.528Z,12.8
2024-05-09T07:39:12.452Z,13
2024-05-09T07:44:12.497Z,13.2
2024-05-09T07:50:00.208Z,13.5
2024-05-09T07:54:12.647Z,13.8
2024-05-09T07:59:12.486Z,13.9
2024-05-09T08:04:12.462Z,14
2024-05-09T08:09:13.816Z,14.1
2024-05-09T08:14:12.410Z,14.7
2024-05-09T08:19:12.470Z,14.8
2024-05-09T08:24:12.419Z,14.9
2024-05-09T08:29:12.582Z,15.5
2024-05-09T08:34:12.651Z,15.3
2024-05-09T08:39:12.430Z,15.5
2024-05-09T08:44:12.488Z,16
2024-05-09T08:49:12.470Z,16
2024-05-09T08:54:12.451Z,16.1
2024-05-09T08:59:12.499Z,16.6
2024-05-09T09:04:12.457Z,16.4
2024-05-09T09:09:12.526Z,16.7
2024-05-09T09:14:12.459Z,16.8
2024-05-09T09:19:12.493Z,17.1
2024-05-09T09:24:12.465Z,18.1
2024-05-09T09:29:12.440Z,18.3
2024-05-09T09:39:12.436Z,18.7
2024-05-09T09:44:12.441Z,18.4
2024-05-09T09:49:12.528Z,19.1
2024-05-09T09:54:12.450Z,18.6
2024-05-09T09:59:12.472Z,19.9
2024-05-09T10:04:12.590Z,20.8
2024-05-09T10:09:27.554Z,21.1
2024-05-09T10:19:12.618Z,18.6
2024-05-09T10:24:12.522Z,19.4
2024-05-09T10:29:12.498Z,20.9
2024-05-09T10:34:12.538Z,21.3
2024-05-09T10:39:12.456Z,20.8
2024-05-09T10:44:12.458Z,19.4
2024-05-09T10:49:12.516Z,19.4
2024-05-09T10:54:12.496Z,19.3
2024-05-09T10:59:12.498Z,21.5
2024-05-09T11:04:12.508Z,20.9
2024-05-09T11:09:12.455Z,22.5
2024-05-09T11:14:12.562Z,23.4
2024-05-09T11:19:12.604Z,22
2024-05-09T11:24:12.518Z,21.4
2024-05-09T11:29:13.325Z,23.3
2024-05-09T11:34:12.668Z,23.3
2024-05-09T11:39:12.476Z,24.3
2024-05-09T11:44:12.529Z,25.1
2024-05-09T11:49:12.792Z,24.5
2024-05-09T11:54:12.527Z,23.3
2024-05-09T11:59:12.528Z,24.1
2024-05-09T12:04:12.621Z,24
2024-05-09T12:09:12.517Z,22.8
2024-05-09T12:14:12.533Z,24.1
2024-05-09T12:19:12.549Z,24.3
2024-05-09T12:24:13.747Z,25.9
2024-05-09T12:29:12.504Z,25.7
2024-05-09T12:34:12.536Z,26.5
2024-05-09T12:39:12.787Z,24.3
2024-05-09T12:44:12.506Z,25.7
2024-05-09T12:54:12.496Z,25.6
2024-05-09T12:59:12.525Z,24.9
2024-05-09T13:04:12.600Z,26.7
2024-05-09T13:09:12.508Z,26.8
2024-05-09T13:14:12.524Z,28
2024-05-09T13:19:12.556Z,27.4
2024-05-09T13:24:13.440Z,27
2024-05-09T13:29:12.527Z,27.8
2024-05-09T13:34:12.627Z,28.5
2024-05-09T13:39:12.528Z,26.4
2024-05-09T13:44:12.556Z,27.1
2024-05-09T13:49:12.823Z,26.6
2024-05-09T13:54:12.536Z,26.6
2024-05-09T13:59:12.574Z,27.1
2024-05-09T14:04:12.776Z,28.8
2024-05-09T14:09:12.543Z,26.9
2024-05-09T14:14:12.583Z,26.3
2024-05-09T14:19:12.640Z,27.2
2024-05-09T14:24:12.563Z,24.7
2024-05-09T14:29:12.563Z,24.4
2024-05-09T14:34:12.676Z,24.3
2024-05-09T14:39:12.589Z,23.5
2024-05-09T14:44:12.597Z,22.6
2024-05-09T14:49:12.839Z,21.7
2024-05-09T14:54:12.575Z,21.6
2024-05-09T14:59:12.567Z,21.6
2024-05-09T15:04:12.609Z,22.3
2024-05-09T15:09:12.665Z,22.7
2024-05-09T15:14:12.589Z,22.5
2024-05-09T15:19:12.655Z,22.8
2024-05-09T15:24:12.555Z,23.1
2024-05-09T15:29:12.575Z,23.4
2024-05-09T15:34:12.613Z,24
2024-05-09T15:39:12.604Z,22.9
2024-05-09T15:44:12.588Z,22.8
2024-05-09T15:49:12.803Z,23.6
2024-05-09T15:54:12.587Z,23.4
2024-05-09T15:59:12.628Z,23.3
2024-05-09T16:04:12.700Z,23.4
2024-05-09T16:09:12.628Z,24.3
2024-05-09T16:14:12.607Z,25.1
2024-05-09T16:19:12.686Z,25.8
2024-05-09T16:24:12.611Z,27
2024-05-09T16:29:12.628Z,24.9
2024-05-09T16:34:12.837Z,25.1
2024-05-09T16:39:12.589Z,25.2
2024-05-09T16:44:12.594Z,25.1
2024-05-09T16:49:12.611Z,25.1
2024-05-09T16:54:12.658Z,23.8
2024-05-09T16:59:12.650Z,21.5
2024-05-09T17:04:12.716Z,20.7
2024-05-09T17:09:15.549Z,20.5
2024-05-09T17:14:12.612Z,20.3
2024-05-09T17:19:12.737Z,20
2024-05-09T17:24:12.848Z,19.9
2024-05-09T17:29:12.664Z,19.8
2024-05-09T17:34:13.040Z,19.5
2024-05-09T17:39:12.687Z,19.4
2024-05-09T17:44:12.652Z,19.3
2024-05-09T17:49:12.739Z,19.4
2024-05-09T17:54:12.611Z,19.6
2024-05-09T17:59:12.650Z,19.2
2024-05-09T18:04:12.798Z,18.6
2024-05-09T18:09:12.693Z,18.3
2024-05-09T18:14:12.668Z,17.9
2024-05-09T18:19:12.712Z,17.6
2024-05-09T18:24:12.705Z,17.4
2024-05-09T18:29:12.693Z,17.1
2024-05-09T18:34:12.706Z,16.8
2024-05-09T18:39:12.648Z,16.6
2024-05-09T18:44:12.680Z,16.3
2024-05-09T18:49:12.895Z,15.9
2024-05-09T18:54:12.666Z,15.7
2024-05-09T18:59:12.705Z,15.4
2024-05-09T19:04:12.822Z,15.3
2024-05-09T19:09:12.640Z,15
2024-05-09T19:14:12.701Z,14.9
2024-05-09T19:19:12.844Z,14.8
2024-05-09T19:24:12.680Z,14.5
2024-05-09T19:29:12.683Z,14.3
2024-05-09T19:34:12.698Z,14.1
2024-05-09T19:39:12.728Z,13.9
2024-05-09T19:44:12.661Z,13.8
2024-05-09T19:49:12.800Z,13.6
2024-05-09T19:54:12.663Z,13.4
2024-05-09T19:59:12.690Z,13.4
2024-05-09T20:04:12.854Z,13.1
2024-05-09T20:09:12.722Z,12.9
2024-05-09T20:14:12.691Z,12.9
2024-05-09T20:19:12.770Z,12.7
2024-05-09T20:24:12.708Z,12.6
2024-05-09T20:29:12.728Z,12.4
2024-05-09T20:34:12.748Z,12.3
2024-05-09T20:39:12.749Z,12.1
2024-05-09T20:44:12.729Z,11.9
2024-05-09T20:49:12.773Z,11.8
2024-05-09T20:54:12.769Z,11.8
2024-05-09T20:59:12.736Z,11.7
2024-05-09T21:04:12.935Z,11.6
2024-05-09T21:09:12.731Z,11.4
2024-05-09T21:14:12.717Z,11.1
2024-05-09T21:19:12.814Z,10.9
2024-05-09T21:24:12.785Z,10.8
2024-05-09T21:29:12.749Z,10.8
2024-05-09T21:34:12.780Z,10.9
2024-05-09T21:39:12.757Z,10.9
2024-05-09T21:44:12.719Z,10.8
2024-05-09T21:49:12.781Z,10.8
2024-05-09T21:54:12.755Z,10.8
2024-05-09T21:59:12.765Z,10.6
2024-05-09T22:04:12.813Z,10.4
2024-05-09T22:09:12.758Z,10.3
2024-05-09T22:14:12.728Z,10.3
2024-05-09T22:19:12.765Z,10.2
2024-05-09T22:24:12.731Z,10
2024-05-09T22:29:12.724Z,9.9
2024-05-09T22:34:12.989Z,9.8
2024-05-09T22:39:12.703Z,9.8
2024-05-09T22:44:12.790Z,9.8
2024-05-09T22:49:12.880Z,9.5
2024-05-09T22:54:12.732Z,9.4
2024-05-09T22:59:12.743Z,9.4
2024-05-09T23:04:12.836Z,9.4
2024-05-09T23:09:12.742Z,9.1
2024-05-09T23:14:12.735Z,9.1
2024-05-09T23:19:12.786Z,9.1
2024-05-09T23:24:12.769Z,8.9
2024-05-09T23:29:12.792Z,8.8
2024-05-09T23:34:12.869Z,8.7
2024-05-09T23:39:12.792Z,8.6
2024-05-09T23:44:12.817Z,8.6
2024-05-09T23:49:12.797Z,8.6
2024-05-09T23:54:12.755Z,8.6
2024-05-09T23:59:12.764Z,8.4
